Time;durP1;ratioP1;P1;durP2;ratioP2;P2;SDS_P1;SDS_P2;PMS_P1;PMS_P2;Temp;Humidity;BMP_temperature;BMP_pressure;BME280_temperature;BME280_humidity;BME280_pressure;Samples;Min_cycle;Max_cycle;Signal;HPM_P1;HPM_P2
2021/12/07 00:01:41;;;;;;;6.77;5.10;;;;;;;1.87;81.76;96030.88;5093197;28;20855;-74
2021/12/07 00:04:08;;;;;;;6.13;5.15;;;;;;;1.82;82.34;96030.66;5087740;28;20410;-75
2021/12/07 00:06:33;;;;;;;5.85;5.15;;;;;;;1.83;81.73;96026.28;5087032;28;20467;-75
2021/12/07 00:08:59;;;;;;;6.40;4.80;;;;;;;1.80;82.30;96014.53;5093012;28;20886;-75
2021/12/07 00:11:29;;;;;;;5.27;4.77;;;;;;;1.75;81.79;96009.16;5093260;28;20408;-74
2021/12/07 00:13:57;;;;;;;5.10;4.60;;;;;;;1.81;81.49;96016.16;5093193;28;20467;-74
2021/12/07 00:16:24;;;;;;;4.82;4.43;;;;;;;1.73;82.67;96013.69;5093418;28;20393;-74
2021/12/07 00:18:49;;;;;;;5.10;4.60;;;;;;;1.79;82.17;96009.56;5093322;28;20422;-75
2021/12/07 00:21:17;;;;;;;5.00;4.30;;;;;;;1.91;80.89;96003.66;5092048;28;21062;-75
2021/12/07 00:23:44;;;;;;;4.90;4.40;;;;;;;1.75;81.94;96009.16;5092810;28;20477;-74
2021/12/07 00:26:11;;;;;;;5.15;4.47;;;;;;;2.02;80.94;96008.28;5083029;28;20430;-74
2021/12/07 00:28:37;;;;;;;4.90;4.38;;;;;;;2.01;80.10;96004.09;5077315;28;20420;-75
2021/12/07 00:31:12;;;;;;;5.23;4.30;;;;;;;2.14;80.19;96007.75;5092753;28;20458;-74
2021/12/07 00:33:47;;;;;;;4.90;4.40;;;;;;;2.17;79.93;96012.53;5092875;28;20409;-73
2021/12/07 00:36:13;;;;;;;5.15;4.50;;;;;;;2.17;79.86;96003.00;5080928;28;20395;-73
2021/12/07 00:38:39;;;;;;;4.88;4.38;;;;;;;2.24;80.31;96008.16;5087615;28;20459;-73
2021/12/07 00:41:05;;;;;;;4.30;3.92;;;;;;;2.22;80.60;96005.81;5092383;28;20439;-73
2021/12/07 00:43:33;;;;;;;4.63;4.07;;;;;;;2.19;80.52;96003.59;5092394;28;20401;-73
2021/12/07 00:46:00;;;;;;;4.38;3.53;;;;;;;2.08;80.90;96004.13;5092686;28;20473;-73
2021/12/07 00:48:26;;;;;;;3.88;3.47;;;;;;;2.04;82.36;96005.53;5092636;28;20866;-73
2021/12/07 00:50:54;;;;;;;3.93;3.53;;;;;;;1.91;82.05;96003.66;5091476;28;20386;-74
2021/12/07 00:53:20;;;;;;;4.20;3.78;;;;;;;1.86;83.96;95998.28;5074632;28;20405;-74
2021/12/07 00:55:50;;;;;;;4.00;3.63;;;;;;;1.87;84.32;96007.63;5092612;28;20389;-74
2021/12/07 00:58:22;;;;;;;3.53;3.22;;;;;;;1.94;84.63;96018.00;5092668;28;20390;-74
2021/12/07 01:00:51;;;;;;;3.88;3.55;;;;;;;1.71;85.91;96007.16;5091684;28;20425;-74
2021/12/07 01:03:17;;;;;;;3.92;3.58;;;;;;;1.78;87.27;96015.75;5092008;28;20405;-73
2021/12/07 01:05:49;;;;;;;3.97;3.60;;;;;;;1.86;87.40;96020.72;5092550;28;20390;-74
2021/12/07 01:08:24;;;;;;;4.22;3.83;;;;;;;1.73;89.66;96011.13;5092564;28;20432;-74
2021/12/07 01:24:43;;;;;;;4.82;3.85;;;;;;;1.66;92.78;95992.22;5092028;28;20443;-74
2021/12/07 01:27:17;;;;;;;4.40;4.00;;;;;;;1.69;92.85;96004.75;5091999;28;20394;-74
2021/12/07 01:29:46;;;;;;;4.40;4.00;;;;;;;1.50;93.84;96002.84;5091529;28;20398;-74
2021/12/07 01:32:23;;;;;;;4.70;4.30;;;;;;;1.53;94.75;96007.63;5091584;28;20489;-74
2021/12/07 01:50:27;;;;;;;5.87;4.70;;;;;;;1.38;96.18;96009.53;5091769;28;20465;-74
2021/12/07 02:00:55;;;;;;;5.32;4.80;;;;;;;1.44;97.84;96004.41;5091102;28;20421;-74
2021/12/07 02:03:21;;;;;;;5.03;4.45;;;;;;;1.37;99.21;96011.31;5090769;28;20394;-74
2021/12/07 02:05:47;;;;;;;5.53;4.78;;;;;;;1.46;97.75;96005.00;5091332;28;20405;-73
2021/12/07 02:08:13;;;;;;;4.95;4.45;;;;;;;1.53;98.91;96005.06;5091778;28;20390;-74
2021/12/07 02:10:38;;;;;;;4.85;4.35;;;;;;;1.67;99.14;96017.84;5091526;28;20398;-74
2021/12/07 02:13:18;;;;;;;5.23;4.73;;;;;;;1.84;98.19;96007.22;5091633;28;20448;-74
2021/12/07 02:15:44;;;;;;;4.88;4.40;;;;;;;1.85;97.81;96008.81;5091593;28;20704;-74
2021/12/07 02:18:09;;;;;;;5.35;4.50;;;;;;;1.84;98.50;96022.72;5091362;28;20390;-75
2021/12/07 02:20:35;;;;;;;5.20;4.70;;;;;;;1.72;98.55;96019.88;5090820;28;20877;-74
2021/12/07 02:23:00;;;;;;;5.03;4.60;;;;;;;1.70;98.65;96006.34;5091185;28;20750;-74
2021/12/07 02:25:26;;;;;;;5.63;4.43;;;;;;;1.67;99.19;96007.50;5091168;28;20456;-74
2021/12/07 02:27:53;;;;;;;4.87;4.27;;;;;;;1.74;99.36;96019.66;5090010;28;20406;-74
2021/12/07 02:30:22;;;;;;;4.25;3.85;;;;;;;1.80;97.84;96019.72;5090577;28;20393;-74
2021/12/07 02:32:51;;;;;;;4.57;3.95;;;;;;;1.73;98.89;96011.13;5091062;28;20410;-74
2021/12/07 02:35:23;;;;;;;3.92;3.60;;;;;;;1.89;98.89;96012.63;5090602;28;20432;-74
2021/12/07 02:37:48;;;;;;;3.85;3.55;;;;;;;1.89;98.18;96022.94;5091443;28;20736;-74
2021/12/07 02:40:14;;;;;;;4.00;3.60;;;;;;;1.90;98.03;96022.75;5091081;28;20429;-74
2021/12/07 02:42:39;;;;;;;3.63;3.33;;;;;;;1.97;97.74;96012.44;5091341;28;20934;-74
2021/12/07 02:45:06;;;;;;;3.70;3.40;;;;;;;1.96;97.80;96016.00;5092108;28;20385;-74
2021/12/07 02:47:35;;;;;;;3.40;3.10;;;;;;;1.96;98.15;96028.94;5082474;28;20399;-74
2021/12/07 02:50:03;;;;;;;3.60;3.30;;;;;;;2.18;96.99;96034.78;5076594;28;20387;-74
2021/12/07 02:52:28;;;;;;;3.80;3.40;;;;;;;2.13;97.17;96039.75;5095633;28;20394;-76
2021/12/07 02:54:54;;;;;;;3.33;3.03;;;;;;;2.08;97.54;96037.75;5094628;28;20951;-74
2021/12/07 02:57:21;;;;;;;3.37;3.07;;;;;;;2.06;98.64;96040.50;5093532;28;20389;-74
2021/12/07 02:59:57;;;;;;;3.30;3.00;;;;;;;2.10;97.54;96040.94;5094538;28;20739;-74
2021/12/07 03:02:23;;;;;;;3.15;2.80;;;;;;;2.20;98.17;96054.31;5094057;28;20398;-74
2021/12/07 03:05:04;;;;;;;4.75;2.95;;;;;;;2.25;97.05;96054.53;5094952;28;20493;-74
2021/12/07 03:26:42;;;;;;;3.30;3.00;;;;;;;2.07;100.00;96072.31;5093922;28;20921;-75
2021/12/07 03:29:07;;;;;;;3.50;3.20;;;;;;;2.07;100.00;96080.06;5094200;28;20438;-74
2021/12/07 03:31:33;;;;;;;2.80;2.60;;;;;;;2.11;100.00;96070.97;5094167;28;20413;-75
2021/12/07 03:34:00;;;;;;;2.80;2.60;;;;;;;2.33;99.88;96076.84;5094182;28;20406;-74
2021/12/07 03:36:26;;;;;;;3.30;3.00;;;;;;;2.25;100.00;96076.97;5094319;28;20754;-74
2021/12/07 03:38:52;;;;;;;2.75;2.55;;;;;;;2.11;100.00;96075.34;5094289;28;20833;-74
2021/12/07 03:41:19;;;;;;;2.73;2.53;;;;;;;2.11;100.00;96080.50;5076405;28;20402;-75
2021/12/07 03:43:46;;;;;;;3.00;2.80;;;;;;;2.17;100.00;96082.31;5093725;28;20862;-75
2021/12/07 03:46:13;;;;;;;2.92;2.72;;;;;;;2.17;100.00;96080.53;5082123;28;20403;-74
2021/12/07 03:48:40;;;;;;;2.70;2.50;;;;;;;2.15;99.82;96079.13;5088194;28;20394;-74
2021/12/07 03:51:06;;;;;;;3.20;2.95;;;;;;;2.16;100.00;96078.94;5093353;28;20398;-74
2021/12/07 03:53:32;;;;;;;2.85;2.65;;;;;;;2.11;99.95;96089.06;5093455;28;20405;-74
2021/12/07 03:55:59;;;;;;;2.75;2.50;;;;;;;2.06;100.00;96091.41;5093409;28;20474;-74
2021/12/07 03:58:25;;;;;;;3.40;3.10;;;;;;;2.00;100.00;96092.19;5092793;28;20389;-74
2021/12/07 04:00:50;;;;;;;3.20;2.90;;;;;;;2.15;100.00;96098.03;5091608;28;20414;-75
2021/12/07 04:03:17;;;;;;;3.00;2.80;;;;;;;2.23;100.00;96099.66;5093630;28;20397;-75
2021/12/07 04:05:48;;;;;;;3.22;2.92;;;;;;;2.24;100.00;96101.22;5093821;28;20679;-75
2021/12/07 04:08:16;;;;;;;3.27;2.53;;;;;;;2.17;100.00;96114.16;5094650;28;20388;-75
2021/12/07 04:10:42;;;;;;;2.70;2.50;;;;;;;2.05;100.00;96113.88;5093839;28;20394;-75
2021/12/07 04:13:08;;;;;;;3.15;2.38;;;;;;;2.26;100.00;96117.38;5093808;28;20733;-75
2021/12/07 04:15:34;;;;;;;2.97;2.70;;;;;;;2.22;100.00;96119.53;5094424;28;20393;-75
2021/12/07 04:17:59;;;;;;;2.60;2.40;;;;;;;2.11;100.00;96125.25;5092430;28;20394;-75
2021/12/07 04:20:25;;;;;;;2.50;2.30;;;;;;;1.99;100.00;96124.97;5094231;28;20747;-75
2021/12/07 04:22:51;;;;;;;2.50;2.30;;;;;;;2.29;100.00;96119.56;5093995;28;20397;-74
2021/12/07 04:25:18;;;;;;;2.20;2.10;;;;;;;2.30;100.00;96123.75;5092453;28;20543;-75
2021/12/07 04:27:44;;;;;;;2.60;2.40;;;;;;;2.26;100.00;96130.28;5093332;28;20378;-75
2021/12/07 04:30:16;;;;;;;2.10;2.00;;;;;;;2.32;100.00;96127.75;5090430;28;20862;-75
2021/12/07 04:32:42;;;;;;;2.22;2.10;;;;;;;2.21;100.00;96130.06;5093077;28;20481;-75
2021/12/07 04:35:10;;;;;;;2.35;2.15;;;;;;;2.47;100.00;96133.59;5093400;28;20543;-75
2021/12/07 04:37:36;;;;;;;2.30;2.10;;;;;;;2.29;100.00;96135.88;5076862;28;20465;-75
2021/12/07 04:40:02;;;;;;;2.37;2.17;;;;;;;2.35;100.00;96140.28;5090661;28;20393;-74
2021/12/07 04:42:28;;;;;;;2.20;2.00;;;;;;;2.48;100.00;96150.69;5092628;28;20750;-75
2021/12/07 04:44:58;;;;;;;2.00;1.90;;;;;;;2.28;100.00;96151.59;5092568;28;20394;-75
2021/12/07 04:47:42;;;;;;;2.03;1.92;;;;;;;2.20;100.00;96149.13;5091473;28;20389;-75
2021/12/07 04:50:38;;;;;;;1.90;1.80;;;;;;;2.26;100.00;96156.94;5092627;28;20400;-75
2021/12/07 04:58:32;;;;;;;2.00;1.80;;;;;;;2.39;100.00;96154.44;5092224;28;20483;-74
2021/12/07 05:00:58;;;;;;;2.70;2.50;;;;;;;2.25;100.00;96167.47;5092828;28;20824;-74
2021/12/07 05:03:25;;;;;;;7.67;4.47;;;;;;;2.35;100.00;96181.66;5090516;28;20414;-74
2021/12/07 05:05:53;;;;;;;2.92;2.10;;;;;;;2.32;100.00;96181.25;5091396;28;20459;-74
2021/12/07 05:08:34;;;;;;;2.28;2.08;;;;;;;2.48;100.00;96192.06;5092289;28;20379;-75
2021/12/07 05:11:12;;;;;;;2.25;2.03;;;;;;;2.54;100.00;96193.09;5093055;28;20393;-75
2021/12/07 05:13:52;;;;;;;2.15;1.95;;;;;;;2.36;100.00;96201.34;5108981;28;20458;-75
2021/12/07 05:24:37;;;;;;;1.90;1.80;;;;;;;2.31;100.00;96206.28;5084227;28;20830;-75
2021/12/07 05:37:59;;;;;;;2.00;1.60;;;;;;;2.14;100.00;96217.09;5091991;28;20386;-74
2021/12/07 05:40:24;;;;;;;1.70;1.60;;;;;;;2.16;100.00;96217.72;5092101;28;20382;-74
2021/12/07 05:42:51;;;;;;;2.20;1.50;;;;;;;2.32;100.00;96209.69;5091782;28;20389;-74
2021/12/07 05:45:31;;;;;;;2.25;1.65;;;;;;;2.06;100.00;96223.22;5092109;28;20382;-74
2021/12/07 05:47:57;;;;;;;1.85;1.60;;;;;;;2.05;100.00;96222.41;5090554;28;20415;-74
2021/12/07 05:50:25;;;;;;;2.03;1.70;;;;;;;2.22;100.00;96215.19;5091954;28;20390;-74
2021/12/07 05:52:51;;;;;;;2.22;1.70;;;;;;;2.04;100.00;96220.81;5091637;28;20429;-75
2021/12/07 05:55:16;;;;;;;3.83;1.70;;;;;;;2.05;100.00;96219.84;5091464;28;20420;-74
2021/12/07 05:57:42;;;;;;;2.67;1.92;;;;;;;2.09;100.00;96221.06;5091469;28;20397;-74
2021/12/07 06:00:13;;;;;;;1.93;1.70;;;;;;;2.14;100.00;96230.81;5091374;28;20893;-73
2021/12/07 06:02:39;;;;;;;3.33;1.60;;;;;;;2.22;100.00;96232.47;5093168;28;20465;-74
2021/12/07 06:05:05;;;;;;;2.50;1.67;;;;;;;2.21;100.00;96231.69;5093393;28;20416;-75
2021/12/07 06:07:30;;;;;;;3.58;1.60;;;;;;;2.22;100.00;96228.13;5091210;28;20420;-75
2021/12/07 06:09:55;;;;;;;3.03;1.50;;;;;;;2.27;100.00;96246.44;5092551;28;20394;-75
2021/12/07 06:12:21;;;;;;;3.47;1.57;;;;;;;2.30;99.96;96246.06;5097511;28;20764;-75
2021/12/07 06:14:46;;;;;;;3.57;1.70;;;;;;;2.46;98.92;96256.09;5085805;28;20785;-76
2021/12/07 06:17:12;;;;;;;2.20;1.70;;;;;;;2.43;99.02;96243.56;5094767;28;20394;-75
2021/12/07 06:19:38;;;;;;;2.53;1.70;;;;;;;2.36;99.76;96247.88;5093687;28;20386;-75
2021/12/07 06:22:05;;;;;;;1.70;1.60;;;;;;;2.47;97.64;96252.53;5105662;28;20387;-75
2021/12/07 06:24:31;;;;;;;3.53;1.80;;;;;;;2.42;97.59;96251.50;5084203;28;20410;-75
2021/12/07 06:26:57;;;;;;;2.08;1.50;;;;;;;2.48;97.01;96259.31;5090729;28;20854;-75
2021/12/07 06:29:22;;;;;;;5.18;1.83;;;;;;;2.62;96.47;96270.53;5095266;28;20519;-76
2021/12/07 06:31:47;;;;;;;1.73;1.47;;;;;;;2.67;94.49;96255.28;5095238;28;20497;-76
2021/12/07 06:34:13;;;;;;;3.20;1.50;;;;;;;2.51;94.11;96276.22;5094993;28;20414;-76
2021/12/07 06:36:38;;;;;;;3.03;1.90;;;;;;;2.49;95.65;96283.41;5095103;28;20401;-76
2021/12/07 06:39:06;;;;;;;1.60;1.50;;;;;;;2.44;95.89;96281.38;5095063;28;20435;-76
2021/12/07 06:41:32;;;;;;;1.92;1.60;;;;;;;2.48;96.44;96276.63;5093730;28;20437;-76
2021/12/07 06:43:58;;;;;;;2.27;1.90;;;;;;;2.53;97.22;96284.59;5095325;28;20461;-76
2021/12/07 06:46:23;;;;;;;2.60;1.70;;;;;;;2.54;98.12;96285.41;5095259;28;20399;-76
2021/12/07 06:48:49;;;;;;;5.23;1.97;;;;;;;2.61;97.30;96291.44;5095030;28;20397;-76
2021/12/07 06:51:14;;;;;;;2.38;1.70;;;;;;;2.42;97.75;96296.28;5095156;28;20865;-76
2021/12/07 06:53:40;;;;;;;3.80;1.83;;;;;;;2.67;97.51;96295.84;5094618;28;20486;-75
2021/12/07 06:56:08;;;;;;;2.30;1.60;;;;;;;2.73;96.93;96308.03;5094497;28;20390;-75
2021/12/07 06:58:34;;;;;;;3.33;1.73;;;;;;;2.48;97.60;96311.03;5094621;28;20394;-71
2021/12/07 07:01:00;;;;;;;2.60;1.63;;;;;;;2.54;98.23;96312.06;5094298;28;20922;-76
2021/12/07 07:03:26;;;;;;;3.30;1.73;;;;;;;2.76;98.10;96311.03;5093571;28;20453;-77
2021/12/07 07:05:52;;;;;;;2.88;1.70;;;;;;;2.74;97.59;96317.38;5095191;28;20394;-76
2021/12/07 07:08:18;;;;;;;2.40;1.77;;;;;;;2.84;96.07;96323.03;5094923;28;20386;-76
2021/12/07 07:10:43;;;;;;;2.90;1.63;;;;;;;2.78;97.15;96328.97;5093884;28;20920;-75
2021/12/07 07:13:08;;;;;;;2.25;1.52;;;;;;;2.82;97.58;96331.00;5094285;28;20423;-75
2021/12/07 07:15:35;;;;;;;2.40;1.80;;;;;;;2.77;97.21;96329.94;5094570;28;20825;-77
2021/12/07 07:18:00;;;;;;;3.45;2.20;;;;;;;2.76;97.25;96341.28;5094232;28;20390;-76
2021/12/07 07:20:27;;;;;;;3.13;1.90;;;;;;;2.87;96.36;96349.34;5093891;28;20742;-76
2021/12/07 07:22:53;;;;;;;2.25;1.80;;;;;;;2.98;97.21;96352.38;5093186;28;20398;-74
2021/12/07 07:25:18;;;;;;;1.80;1.70;;;;;;;3.00;95.51;96347.81;5093442;28;20402;-76
2021/12/07 07:27:44;;;;;;;3.33;2.03;;;;;;;2.87;95.23;96345.94;5093972;28;20397;-73
2021/12/07 07:30:13;;;;;;;3.77;2.57;;;;;;;2.92;95.58;96353.94;5094291;28;20547;-73
2021/12/07 07:32:38;;;;;;;4.53;2.30;;;;;;;2.89;97.14;96349.97;5091816;28;20520;-74
2021/12/07 07:35:06;;;;;;;4.20;2.10;;;;;;;2.80;96.72;96345.88;5093268;28;20497;-73
2021/12/07 07:37:32;;;;;;;5.45;2.28;;;;;;;2.87;96.58;96351.13;5094331;28;20398;-76
2021/12/07 07:39:57;;;;;;;3.78;2.30;;;;;;;2.85;97.42;96347.91;5093994;28;20435;-74
2021/12/07 07:42:23;;;;;;;2.23;2.00;;;;;;;2.77;96.37;96340.31;5093663;28;20742;-71
2021/12/07 07:44:48;;;;;;;2.30;1.80;;;;;;;2.42;98.44;96336.84;5092259;28;20528;-71
2021/12/07 07:47:13;;;;;;;2.80;1.90;;;;;;;2.52;98.58;96337.31;5092360;28;20390;-73
2021/12/07 07:49:39;;;;;;;2.63;1.73;;;;;;;2.71;97.14;96341.06;5093781;28;20491;-72
2021/12/07 07:52:05;;;;;;;2.88;1.80;;;;;;;2.78;96.84;96342.72;5093670;28;20397;-71
2021/12/07 07:54:30;;;;;;;2.03;1.65;;;;;;;2.89;94.75;96343.97;5093588;28;20936;-71
2021/12/07 07:56:56;;;;;;;2.20;1.80;;;;;;;2.69;95.17;96354.16;5093625;28;20386;-71
2021/12/07 07:59:21;;;;;;;2.87;2.03;;;;;;;3.03;93.74;96356.00;5092703;28;20498;-71
2021/12/07 08:01:47;;;;;;;3.60;2.03;;;;;;;3.08;93.33;96360.59;5092932;28;20406;-72
2021/12/07 08:04:12;;;;;;;6.20;2.60;;;;;;;3.18;93.40;96351.50;5091783;28;20393;-70
2021/12/07 08:06:38;;;;;;;4.67;2.53;;;;;;;3.09;93.61;96364.78;5092674;28;20385;-71
2021/12/07 08:09:05;;;;;;;5.28;2.60;;;;;;;3.17;93.81;96360.28;5092564;28;20378;-71
2021/12/07 08:11:31;;;;;;;4.23;2.60;;;;;;;3.24;93.65;96368.06;5091202;28;20497;-70
2021/12/07 08:13:57;;;;;;;5.28;2.80;;;;;;;3.43;91.94;96371.75;5092872;28;20409;-71
2021/12/07 08:16:23;;;;;;;2.50;2.20;;;;;;;3.29;92.02;96370.88;5093390;28;20389;-72
2021/12/07 08:18:50;;;;;;;3.45;1.88;;;;;;;3.43;91.32;96375.16;5093050;28;20401;-73
2021/12/07 08:21:16;;;;;;;2.53;2.03;;;;;;;3.47;91.82;96388.50;5092314;28;20491;-72
2021/12/07 08:23:43;;;;;;;3.67;2.23;;;;;;;3.44;91.70;96389.72;5087308;28;20756;-69
2021/12/07 08:26:11;;;;;;;5.90;2.10;;;;;;;3.52;91.00;96381.75;5091615;28;20806;-70
2021/12/07 08:28:37;;;;;;;3.85;2.10;;;;;;;3.64;91.10;96379.41;5092828;28;20397;-69
2021/12/07 08:31:04;;;;;;;3.20;1.98;;;;;;;3.79;89.28;96372.31;5093279;28;20394;-70
2021/12/07 08:33:31;;;;;;;3.30;1.83;;;;;;;3.73;89.68;96380.88;5108723;28;20410;-70
2021/12/07 08:35:57;;;;;;;3.15;1.75;;;;;;;3.73;88.22;96365.31;5096109;28;20405;-72
2021/12/07 08:38:22;;;;;;;2.97;1.70;;;;;;;3.90;87.44;96373.56;5092663;28;20846;-72
2021/12/07 08:40:53;;;;;;;3.15;1.70;;;;;;;4.04;85.14;96378.56;5093785;28;20447;-73
2021/12/07 08:43:23;;;;;;;3.60;1.90;;;;;;;3.84;85.39;96382.91;5104622;28;20398;-72
2021/12/07 08:45:49;;;;;;;4.45;1.80;;;;;;;3.83;86.54;96383.09;5106296;28;20874;-72
2021/12/07 08:48:15;;;;;;;3.58;1.70;;;;;;;3.88;86.36;96394.47;5092977;28;20452;-72
2021/12/07 08:50:42;;;;;;;4.47;1.83;;;;;;;3.88;85.26;96391.88;5093383;28;20840;-73
2021/12/07 08:53:11;;;;;;;3.50;1.77;;;;;;;3.96;85.49;96390.91;5093027;28;20422;-73
2021/12/07 09:01:07;;;;;;;2.55;1.60;;;;;;;4.12;83.75;96406.13;5086834;28;20427;-72
2021/12/07 09:03:32;;;;;;;3.78;1.63;;;;;;;4.12;83.67;96395.75;5092922;28;20472;-69
2021/12/07 09:05:58;;;;;;;3.97;1.92;;;;;;;4.27;82.92;96395.59;5092746;28;20875;-73
2021/12/07 09:08:24;;;;;;;5.35;1.70;;;;;;;4.38;82.21;96397.59;5092540;28;20390;-70
2021/12/07 09:10:51;;;;;;;5.10;1.80;;;;;;;4.41;82.60;96415.34;5092728;28;20400;-74
2021/12/07 09:13:16;;;;;;;4.40;2.00;;;;;;;4.47;82.85;96422.34;5092466;28;21325;-72
2021/12/07 09:15:42;;;;;;;4.27;1.80;;;;;;;4.48;81.98;96421.38;5092113;28;20382;-74
2021/12/07 09:18:08;;;;;;;3.77;1.50;;;;;;;4.34;83.63;96422.34;5091400;28;20386;-73
2021/12/07 09:20:35;;;;;;;3.55;1.63;;;;;;;4.43;84.25;96419.38;5092499;28;20398;-73
2021/12/07 09:23:00;;;;;;;3.55;1.70;;;;;;;4.76;81.34;96410.81;5092053;28;20382;-74
2021/12/07 09:25:26;;;;;;;4.20;1.70;;;;;;;4.67;82.74;96410.22;5091875;28;20823;-72
2021/12/07 09:27:52;;;;;;;6.22;2.17;;;;;;;4.56;84.06;96410.81;5091272;28;20746;-72
2021/12/07 09:30:19;;;;;;;5.57;2.13;;;;;;;4.81;82.51;96419.59;5091680;28;20404;-69
2021/12/07 09:32:45;;;;;;;3.88;1.88;;;;;;;4.85;81.92;96410.41;5090347;28;20394;-70
2021/12/07 09:35:11;;;;;;;3.85;1.95;;;;;;;4.77;82.41;96409.81;5091443;28;20759;-74
2021/12/07 09:37:38;;;;;;;3.65;1.80;;;;;;;4.87;82.74;96411.03;5091739;28;20920;-71
2021/12/07 09:40:07;;;;;;;4.15;1.73;;;;;;;5.07;81.86;96413.59;5091829;28;20412;-70
2021/12/07 09:42:32;;;;;;;6.63;1.60;;;;;;;5.07;79.70;96415.44;5090965;28;20390;-71
2021/12/07 09:44:58;;;;;;;4.43;1.57;;;;;;;5.10;79.66;96421.00;5091385;28;20389;-69
2021/12/07 09:47:24;;;;;;;3.35;1.50;;;;;;;5.15;78.70;96418.59;5090771;28;20394;-70
2021/12/07 09:49:50;;;;;;;3.05;1.60;;;;;;;5.26;77.29;96424.97;5091119;28;20847;-69
2021/12/07 09:52:16;;;;;;;4.13;1.70;;;;;;;5.41;76.93;96431.56;5091876;28;20397;-70
2021/12/07 09:54:41;;;;;;;4.13;1.30;;;;;;;5.64;74.04;96425.09;5091340;28;20414;-70
2021/12/07 09:57:07;;;;;;;3.00;1.53;;;;;;;5.81;73.09;96405.44;5095697;28;20739;-71
2021/12/07 09:59:33;;;;;;;3.83;1.60;;;;;;;5.53;72.21;96416.13;5095730;28;20409;-69
2021/12/07 10:01:58;;;;;;;4.37;1.53;;;;;;;5.33;73.97;96429.19;5096119;28;20390;-69
2021/12/07 10:04:27;;;;;;;3.33;1.40;;;;;;;5.13;73.64;96417.19;5082632;28;20880;-72
2021/12/07 10:06:54;;;;;;;3.03;1.40;;;;;;;5.25;74.25;96413.00;5095703;28;20386;-72
2021/12/07 10:09:20;;;;;;;2.78;1.30;;;;;;;5.32;74.55;96426.78;5095288;28;20484;-73
2021/12/07 10:11:50;;;;;;;2.22;1.33;;;;;;;5.25;73.14;96421.59;5095327;28;20421;-71
2021/12/07 10:14:15;;;;;;;3.72;1.42;;;;;;;5.16;73.13;96432.38;5081077;28;20462;-73
2021/12/07 10:16:49;;;;;;;4.13;1.60;;;;;;;5.33;72.42;96418.00;5099810;28;20399;-70
2021/12/07 10:19:37;;;;;;;4.70;1.40;;;;;;;5.22;73.00;96426.41;5093717;28;20798;-70
2021/12/07 10:22:09;;;;;;;5.50;1.50;;;;;;;5.40;74.38;96423.97;5090684;28;20467;-69
2021/12/07 10:24:47;;;;;;;2.17;1.20;;;;;;;5.48;74.32;96425.53;5095069;28;20385;-69
2021/12/07 10:27:29;;;;;;;5.93;1.30;;;;;;;5.29;72.73;96416.81;5094790;28;20418;-69
2021/12/07 10:29:55;;;;;;;2.80;1.40;;;;;;;5.76;72.61;96407.88;5094868;28;20818;-70
2021/12/07 10:32:20;;;;;;;3.80;1.30;;;;;;;5.86;71.52;96398.63;5095123;28;20488;-69
2021/12/07 10:34:46;;;;;;;2.57;1.20;;;;;;;6.00;69.26;96407.22;5081754;28;20482;-69
2021/12/07 10:37:15;;;;;;;2.15;1.27;;;;;;;6.09;70.28;96398.16;5093150;28;20390;-69
2021/12/07 10:39:52;;;;;;;4.22;1.20;;;;;;;5.89;68.73;96400.06;5094938;28;20386;-69
2021/12/07 10:42:21;;;;;;;3.78;1.10;;;;;;;5.91;68.02;96399.88;5094498;28;20429;-69
2021/12/07 10:44:47;;;;;;;3.13;1.20;;;;;;;5.84;69.68;96399.84;5095114;28;20398;-69
2021/12/07 10:47:15;;;;;;;3.95;1.70;;;;;;;5.69;69.24;96389.69;5094482;28;20386;-69
2021/12/07 10:49:51;;;;;;;2.45;1.20;;;;;;;6.07;67.99;96391.59;5094400;28;20402;-69
2021/12/07 10:52:34;;;;;;;1.83;1.10;;;;;;;5.83;67.73;96386.06;5094734;28;20394;-69
2021/12/07 10:55:05;;;;;;;2.00;1.33;;;;;;;5.77;68.82;96380.88;5094119;28;20405;-69
2021/12/07 10:57:38;;;;;;;2.63;1.27;;;;;;;5.77;68.59;96378.28;5094158;28;20417;-70
2021/12/07 11:00:25;;;;;;;1.90;1.10;;;;;;;5.74;68.56;96374.25;5093385;28;20490;-69
2021/12/07 11:02:55;;;;;;;2.97;1.10;;;;;;;5.85;68.80;96358.03;5092414;28;20409;-69
2021/12/07 11:05:29;;;;;;;4.57;1.48;;;;;;;5.67;69.26;96357.13;5092256;28;20475;-70
2021/12/07 11:07:56;;;;;;;3.33;1.60;;;;;;;6.07;66.59;96352.56;5093141;28;20854;-70
2021/12/07 11:10:32;;;;;;;5.38;1.25;;;;;;;5.56;68.18;96347.34;5093638;28;20398;-69
2021/12/07 11:13:18;;;;;;;4.07;1.50;;;;;;;5.59;67.93;96344.34;5088405;28;20453;-69
2021/12/07 11:15:52;;;;;;;2.78;1.25;;;;;;;5.43;68.68;96345.59;5092532;28;20420;-70
2021/12/07 11:18:40;;;;;;;3.08;1.10;;;;;;;5.43;68.60;96345.59;5088532;28;20867;-72
2021/12/07 11:21:11;;;;;;;3.22;1.17;;;;;;;5.68;69.25;96348.31;5090243;28;20466;-70
2021/12/07 11:23:42;;;;;;;3.45;1.30;;;;;;;5.67;67.71;96341.53;5092634;28;20390;-70
2021/12/07 11:31:39;;;;;;;3.10;1.00;;;;;;;6.37;65.67;96330.13;5092765;28;20543;-70
2021/12/07 11:34:15;;;;;;;2.90;1.33;;;;;;;6.26;65.61;96336.81;5092450;28;20489;-70
2021/12/07 11:36:53;;;;;;;2.30;1.17;;;;;;;6.70;62.65;96335.09;5092684;28;20886;-70
2021/12/07 11:39:21;;;;;;;4.05;1.10;;;;;;;7.14;59.77;96326.28;5079683;28;20410;-70
2021/12/07 11:41:48;;;;;;;2.85;1.33;;;;;;;7.22;59.99;96317.38;5091153;28;20389;-70
2021/12/07 11:44:14;;;;;;;2.15;1.17;;;;;;;7.31;59.25;96327.28;5092342;28;20390;-70
2021/12/07 11:46:47;;;;;;;3.50;1.50;;;;;;;7.32;61.26;96328.09;5100816;28;20471;-70
2021/12/07 11:49:16;;;;;;;3.97;1.30;;;;;;;7.00;61.25;96327.41;5089984;28;20386;-70
2021/12/07 11:51:44;;;;;;;3.65;1.30;;;;;;;6.62;62.13;96325.75;5087212;28;20920;-70
2021/12/07 11:54:11;;;;;;;3.00;1.17;;;;;;;6.33;63.88;96328.97;5090558;28;20828;-70
2021/12/07 11:56:37;;;;;;;1.77;1.10;;;;;;;6.11;64.47;96318.13;5086901;28;20394;-70
2021/12/07 11:59:04;;;;;;;2.30;1.13;;;;;;;6.02;66.31;96319.34;5049082;28;1130728;-71
2021/12/07 12:01:30;;;;;;;2.83;1.20;;;;;;;5.70;66.60;96321.09;5086611;28;20883;-72
2021/12/07 12:03:55;;;;;;;5.32;1.30;;;;;;;5.75;66.91;96307.47;5092903;28;20435;-72
2021/12/07 12:06:21;;;;;;;3.73;1.60;;;;;;;5.70;67.79;96304.69;5093376;28;20436;-71
2021/12/07 12:08:48;;;;;;;3.33;1.17;;;;;;;5.65;67.44;96299.31;5093405;28;20738;-72
2021/12/07 12:11:25;;;;;;;2.35;1.20;;;;;;;5.54;68.87;96305.16;5093349;28;20915;-72
2021/12/07 12:14:05;;;;;;;3.05;1.20;;;;;;;5.55;68.75;96301.56;5093305;28;20414;-72
2021/12/07 12:16:53;;;;;;;3.80;1.00;;;;;;;5.52;69.15;96296.81;5093000;28;20394;-72
2021/12/07 12:19:39;;;;;;;2.90;1.10;;;;;;;5.68;68.36;96285.94;5079621;28;20826;-72
2021/12/07 12:22:26;;;;;;;4.93;1.40;;;;;;;5.61;68.92;96270.34;5091139;28;20862;-72
2021/12/07 12:24:55;;;;;;;2.15;1.10;;;;;;;5.70;69.23;96270.91;5080097;28;20401;-72
2021/12/07 12:27:31;;;;;;;3.33;1.30;;;;;;;5.88;66.16;96271.03;5097554;28;20404;-71
2021/12/07 12:29:57;;;;;;;2.70;1.30;;;;;;;5.67;66.92;96266.94;5088794;28;20412;-73
2021/12/07 12:32:33;;;;;;;2.93;1.40;;;;;;;6.10;66.75;96266.28;5076574;28;20390;-73
2021/12/07 12:34:59;;;;;;;2.38;1.10;;;;;;;6.26;65.93;96258.75;5092890;28;20409;-73
2021/12/07 12:37:31;;;;;;;3.15;1.20;;;;;;;6.21;66.34;96261.19;5092513;28;20393;-73
2021/12/07 12:39:58;;;;;;;3.22;1.50;;;;;;;6.07;66.95;96253.72;5092859;28;20469;-73
2021/12/07 12:42:36;;;;;;;4.23;1.40;;;;;;;6.16;66.31;96249.84;5094217;28;20749;-73
2021/12/07 12:45:23;;;;;;;3.05;1.20;;;;;;;6.18;65.90;96246.03;5092071;28;20466;-73
2021/12/07 12:47:59;;;;;;;4.18;1.20;;;;;;;6.29;65.39;96239.34;5082072;28;20484;-75
2021/12/07 12:50:30;;;;;;;2.78;1.10;;;;;;;6.49;64.86;96245.16;5092937;28;20398;-74
2021/12/07 12:53:09;;;;;;;2.97;1.25;;;;;;;6.54;64.46;96247.91;5091165;28;20442;-74
2021/12/07 12:55:41;;;;;;;1.88;0.93;;;;;;;6.67;64.16;96247.78;5092186;28;20394;-73
2021/12/07 12:58:29;;;;;;;1.42;1.05;;;;;;;6.75;64.33;96249.31;5092402;28;20390;-71
2021/12/07 13:01:00;;;;;;;3.27;1.10;;;;;;;6.68;63.56;96248.59;5091638;28;20453;-70
2021/12/07 13:03:42;;;;;;;2.60;1.20;;;;;;;6.38;64.39;96251.06;5091368;28;20402;-69
2021/12/07 13:06:08;;;;;;;1.63;1.10;;;;;;;6.03;66.28;96245.50;5092450;28;20918;-71
2021/12/07 13:08:57;;;;;;;2.03;1.10;;;;;;;5.68;67.58;96249.53;5091667;28;20486;-70
2021/12/07 13:11:45;;;;;;;3.00;1.20;;;;;;;5.66;67.94;96252.31;5091746;28;20400;-71
2021/12/07 13:14:31;;;;;;;3.97;1.25;;;;;;;5.62;67.58;96250.38;5084080;28;20895;-71
2021/12/07 13:17:17;;;;;;;3.60;1.30;;;;;;;5.95;67.22;96245.00;5092281;28;20885;-71
2021/12/07 13:20:04;;;;;;;3.15;1.10;;;;;;;6.47;65.10;96236.75;5091512;28;20381;-72